sensor_id;sensor_type;location;lat;lon;timestamp;pressure;altitude;pressure_sealevel;temperature;humidity
57250;BME280;43102;52.014;-0.680;2022-08-25T00:00:00;100878;;;21.55;67.10
57250;BME280;43102;52.014;-0.680;2022-08-25T00:01:00;100887;;;21.55;67.03
57250;BME280;43102;52.014;-0.680;2022-08-25T00:02:02;100887;;;21.55;67.03
57250;BME280;43102;52.014;-0.680;2022-08-25T00:03:00;100887;;;21.55;67.03
57250;BME280;43102;52.014;-0.680;2022-08-25T00:04:00;100887;;;21.55;67.03
57250;BME280;43102;52.014;-0.680;2022-08-25T00:05:00;100887;;;21.55;67.03
57250;BME280;43102;52.014;-0.680;2022-08-25T00:06:00;100885;;;21.37;67.46
57250;BME280;43102;52.014;-0.680;2022-08-25T00:07:00;100885;;;21.37;67.46
57250;BME280;43102;52.014;-0.680;2022-08-25T00:08:00;100885;;;21.37;67.46
57250;BME280;43102;52.014;-0.680;2022-08-25T00:09:00;100885;;;21.37;67.46
57250;BME280;43102;52.014;-0.680;2022-08-25T00:10:00;100885;;;21.37;67.46
57250;BME280;43102;52.014;-0.680;2022-08-25T00:11:00;100879;;;21.25;67.77
57250;BME280;43102;52.014;-0.680;2022-08-25T00:12:00;100879;;;21.25;67.77
57250;BME280;43102;52.014;-0.680;2022-08-25T00:13:00;100879;;;21.25;67.77
57250;BME280;43102;52.014;-0.680;2022-08-25T00:14:01;100879;;;21.25;67.77
57250;BME280;43102;52.014;-0.680;2022-08-25T00:15:00;100879;;;21.25;67.77
57250;BME280;43102;52.014;-0.680;2022-08-25T00:16:00;100870;;;21.17;67.96
57250;BME280;43102;52.014;-0.680;2022-08-25T00:17:00;100870;;;21.17;67.96
57250;BME280;43102;52.014;-0.680;2022-08-25T00:18:00;100870;;;21.17;67.96
57250;BME280;43102;52.014;-0.680;2022-08-25T00:19:03;100870;;;21.17;67.96
57250;BME280;43102;52.014;-0.680;2022-08-25T00:20:00;100870;;;21.17;67.96
57250;BME280;43102;52.014;-0.680;2022-08-25T00:21:00;100867;;;21.16;67.94
57250;BME280;43102;52.014;-0.680;2022-08-25T00:22:00;100867;;;21.16;67.94
57250;BME280;43102;52.014;-0.680;2022-08-25T00:23:00;100867;;;21.16;67.94
57250;BME280;43102;52.014;-0.680;2022-08-25T00:24:00;100867;;;21.16;67.94
57250;BME280;43102;52.014;-0.680;2022-08-25T00:25:00;100867;;;21.16;67.94
57250;BME280;43102;52.014;-0.680;2022-08-25T00:26:00;100868;;;21.11;68.08
57250;BME280;43102;52.014;-0.680;2022-08-25T00:27:00;100868;;;21.11;68.08
57250;BME280;43102;52.014;-0.680;2022-08-25T00:28:00;100868;;;21.11;68.08
57250;BME280;43102;52.014;-0.680;2022-08-25T00:29:00;100868;;;21.11;68.08
57250;BME280;43102;52.014;-0.680;2022-08-25T00:30:00;100868;;;21.11;68.08
57250;BME280;43102;52.014;-0.680;2022-08-25T00:31:00;100861;;;21.01;68.34
57250;BME280;43102;52.014;-0.680;2022-08-25T00:32:00;100861;;;21.01;68.34
57250;BME280;43102;52.014;-0.680;2022-08-25T00:33:00;100861;;;21.01;68.34
57250;BME280;43102;52.014;-0.680;2022-08-25T00:34:00;100861;;;21.01;68.34
57250;BME280;43102;52.014;-0.680;2022-08-25T00:35:00;100861;;;21.01;68.34
57250;BME280;43102;52.014;-0.680;2022-08-25T00:36:00;100849;;;21.03;68.47
57250;BME280;43102;52.014;-0.680;2022-08-25T00:37:00;100849;;;21.03;68.47
57250;BME280;43102;52.014;-0.680;2022-08-25T00:38:00;100849;;;21.03;68.47
57250;BME280;43102;52.014;-0.680;2022-08-25T00:39:00;100849;;;21.03;68.47
57250;BME280;43102;52.014;-0.680;2022-08-25T00:40:00;100849;;;21.03;68.47
57250;BME280;43102;52.014;-0.680;2022-08-25T00:41:00;100835;;;20.87;69.38
57250;BME280;43102;52.014;-0.680;2022-08-25T00:42:00;100835;;;20.87;69.38
57250;BME280;43102;52.014;-0.680;2022-08-25T00:43:00;100835;;;20.87;69.38
57250;BME280;43102;52.014;-0.680;2022-08-25T00:44:00;100835;;;20.87;69.38
57250;BME280;43102;52.014;-0.680;2022-08-25T00:45:00;100835;;;20.87;69.38
57250;BME280;43102;52.014;-0.680;2022-08-25T00:46:00;100848;;;20.92;69.54
57250;BME280;43102;52.014;-0.680;2022-08-25T00:47:01;100848;;;20.92;69.54
57250;BME280;43102;52.014;-0.680;2022-08-25T00:48:00;100848;;;20.92;69.54
57250;BME280;43102;52.014;-0.680;2022-08-25T00:49:05;100848;;;20.92;69.54
57250;BME280;43102;52.014;-0.680;2022-08-25T00:50:00;100848;;;20.92;69.54
57250;BME280;43102;52.014;-0.680;2022-08-25T00:51:00;100857;;;20.96;69.34
57250;BME280;43102;52.014;-0.680;2022-08-25T00:52:02;100857;;;20.96;69.34
57250;BME280;43102;52.014;-0.680;2022-08-25T00:53:00;100857;;;20.96;69.34
57250;BME280;43102;52.014;-0.680;2022-08-25T00:54:00;100857;;;20.96;69.34
57250;BME280;43102;52.014;-0.680;2022-08-25T00:56:00;100865;;;20.99;69.33
57250;BME280;43102;52.014;-0.680;2022-08-25T00:57:00;100865;;;20.99;69.33
57250;BME280;43102;52.014;-0.680;2022-08-25T00:58:02;100865;;;20.99;69.33
57250;BME280;43102;52.014;-0.680;2022-08-25T00:59:00;100865;;;20.99;69.33
57250;BME280;43102;52.014;-0.680;2022-08-25T01:00:00;100865;;;20.99;69.33
57250;BME280;43102;52.014;-0.680;2022-08-25T01:01:00;100860;;;20.94;69.66
57250;BME280;43102;52.014;-0.680;2022-08-25T01:02:00;100860;;;20.94;69.66
57250;BME280;43102;52.014;-0.680;2022-08-25T01:03:00;100860;;;20.94;69.66
57250;BME280;43102;52.014;-0.680;2022-08-25T01:04:00;100860;;;20.94;69.66
57250;BME280;43102;52.014;-0.680;2022-08-25T01:05:00;100860;;;20.94;69.66
57250;BME280;43102;52.014;-0.680;2022-08-25T01:06:00;100858;;;20.94;69.69
57250;BME280;43102;52.014;-0.680;2022-08-25T01:07:00;100858;;;20.94;69.69
57250;BME280;43102;52.014;-0.680;2022-08-25T01:08:00;100858;;;20.94;69.69
57250;BME280;43102;52.014;-0.680;2022-08-25T01:09:00;100858;;;20.94;69.69
57250;BME280;43102;52.014;-0.680;2022-08-25T01:10:00;100858;;;20.94;69.69
57250;BME280;43102;52.014;-0.680;2022-08-25T01:11:01;100867;;;20.94;69.91
57250;BME280;43102;52.014;-0.680;2022-08-25T01:12:00;100867;;;20.94;69.91
57250;BME280;43102;52.014;-0.680;2022-08-25T01:13:01;100867;;;20.94;69.91
57250;BME280;43102;52.014;-0.680;2022-08-25T01:14:00;100867;;;20.94;69.91
57250;BME280;43102;52.014;-0.680;2022-08-25T01:15:00;100867;;;20.94;69.91
57250;BME280;43102;52.014;-0.680;2022-08-25T01:16:00;100871;;;20.86;69.96
57250;BME280;43102;52.014;-0.680;2022-08-25T01:17:00;100871;;;20.86;69.96
57250;BME280;43102;52.014;-0.680;2022-08-25T01:18:00;100871;;;20.86;69.96
57250;BME280;43102;52.014;-0.680;2022-08-25T01:19:00;100871;;;20.86;69.96
57250;BME280;43102;52.014;-0.680;2022-08-25T01:20:00;100871;;;20.86;69.96
57250;BME280;43102;52.014;-0.680;2022-08-25T01:21:00;100869;;;20.85;69.97
57250;BME280;43102;52.014;-0.680;2022-08-25T01:22:00;100869;;;20.85;69.97
57250;BME280;43102;52.014;-0.680;2022-08-25T01:23:00;100869;;;20.85;69.97
57250;BME280;43102;52.014;-0.680;2022-08-25T01:24:00;100869;;;20.85;69.97
57250;BME280;43102;52.014;-0.680;2022-08-25T01:25:01;100869;;;20.85;69.97
57250;BME280;43102;52.014;-0.680;2022-08-25T01:26:03;100867;;;20.84;69.97
57250;BME280;43102;52.014;-0.680;2022-08-25T01:27:00;100867;;;20.84;69.97
57250;BME280;43102;52.014;-0.680;2022-08-25T01:28:00;100867;;;20.84;69.97
57250;BME280;43102;52.014;-0.680;2022-08-25T01:29:02;100867;;;20.84;69.97
57250;BME280;43102;52.014;-0.680;2022-08-25T01:30:00;100867;;;20.84;69.97
57250;BME280;43102;52.014;-0.680;2022-08-25T01:31:00;100859;;;20.86;70.21
57250;BME280;43102;52.014;-0.680;2022-08-25T01:32:03;100859;;;20.86;70.21
57250;BME280;43102;52.014;-0.680;2022-08-25T01:33:03;100859;;;20.86;70.21
57250;BME280;43102;52.014;-0.680;2022-08-25T01:34:00;100859;;;20.86;70.21
57250;BME280;43102;52.014;-0.680;2022-08-25T01:35:00;100859;;;20.86;70.21
57250;BME280;43102;52.014;-0.680;2022-08-25T01:36:00;100862;;;20.82;70.10
57250;BME280;43102;52.014;-0.680;2022-08-25T01:37:00;100862;;;20.82;70.10
57250;BME280;43102;52.014;-0.680;2022-08-25T01:38:00;100862;;;20.82;70.10
57250;BME280;43102;52.014;-0.680;2022-08-25T01:39:00;100862;;;20.82;70.10
57250;BME280;43102;52.014;-0.680;2022-08-25T01:40:00;100862;;;20.82;70.10
57250;BME280;43102;52.014;-0.680;2022-08-25T01:41:00;100864;;;20.75;70.47
57250;BME280;43102;52.014;-0.680;2022-08-25T01:44:00;100864;;;20.75;70.47
57250;BME280;43102;52.014;-0.680;2022-08-25T01:45:00;100864;;;20.75;70.47
57250;BME280;43102;52.014;-0.680;2022-08-25T01:46:00;100853;;;20.67;71.04
57250;BME280;43102;52.014;-0.680;2022-08-25T01:47:00;100853;;;20.67;71.04
57250;BME280;43102;52.014;-0.680;2022-08-25T01:48:00;100853;;;20.67;71.04
57250;BME280;43102;52.014;-0.680;2022-08-25T01:49:00;100853;;;20.67;71.04
57250;BME280;43102;52.014;-0.680;2022-08-25T01:50:00;100853;;;20.67;71.04
57250;BME280;43102;52.014;-0.680;2022-08-25T01:51:00;100849;;;20.64;71.29
57250;BME280;43102;52.014;-0.680;2022-08-25T01:52:05;100849;;;20.64;71.29
57250;BME280;43102;52.014;-0.680;2022-08-25T01:53:06;100849;;;20.64;71.29
57250;BME280;43102;52.014;-0.680;2022-08-25T01:54:00;100849;;;20.64;71.29
57250;BME280;43102;52.014;-0.680;2022-08-25T01:55:00;100849;;;20.64;71.29
57250;BME280;43102;52.014;-0.680;2022-08-25T01:56:08;100853;;;20.65;71.18
57250;BME280;43102;52.014;-0.680;2022-08-25T01:57:00;100853;;;20.65;71.18
57250;BME280;43102;52.014;-0.680;2022-08-25T01:58:00;100853;;;20.65;71.18
57250;BME280;43102;52.014;-0.680;2022-08-25T01:59:00;100853;;;20.65;71.18
57250;BME280;43102;52.014;-0.680;2022-08-25T02:00:00;100853;;;20.65;71.18
57250;BME280;43102;52.014;-0.680;2022-08-25T02:01:01;100842;;;20.64;71.19
57250;BME280;43102;52.014;-0.680;2022-08-25T02:02:00;100842;;;20.64;71.19
57250;BME280;43102;52.014;-0.680;2022-08-25T02:03:00;100842;;;20.64;71.19
57250;BME280;43102;52.014;-0.680;2022-08-25T02:04:00;100842;;;20.64;71.19
57250;BME280;43102;52.014;-0.680;2022-08-25T02:05:00;100842;;;20.64;71.19
57250;BME280;43102;52.014;-0.680;2022-08-25T02:06:00;100842;;;20.61;71.43
57250;BME280;43102;52.014;-0.680;2022-08-25T02:07:00;100842;;;20.61;71.43
57250;BME280;43102;52.014;-0.680;2022-08-25T02:08:00;100842;;;20.61;71.43
57250;BME280;43102;52.014;-0.680;2022-08-25T02:09:01;100842;;;20.61;71.43
57250;BME280;43102;52.014;-0.680;2022-08-25T02:10:00;100842;;;20.61;71.43
57250;BME280;43102;52.014;-0.680;2022-08-25T02:11:00;100847;;;20.60;71.92
57250;BME280;43102;52.014;-0.680;2022-08-25T02:12:00;100847;;;20.60;71.92
57250;BME280;43102;52.014;-0.680;2022-08-25T02:13:00;100847;;;20.60;71.92
57250;BME280;43102;52.014;-0.680;2022-08-25T02:14:00;100847;;;20.60;71.92
57250;BME280;43102;52.014;-0.680;2022-08-25T02:15:00;100847;;;20.60;71.92
57250;BME280;43102;52.014;-0.680;2022-08-25T02:16:00;100839;;;20.60;71.94
57250;BME280;43102;52.014;-0.680;2022-08-25T02:17:00;100839;;;20.60;71.94
57250;BME280;43102;52.014;-0.680;2022-08-25T02:18:00;100839;;;20.60;71.94
57250;BME280;43102;52.014;-0.680;2022-08-25T02:19:00;100839;;;20.60;71.94
57250;BME280;43102;52.014;-0.680;2022-08-25T02:20:00;100839;;;20.60;71.94
57250;BME280;43102;52.014;-0.680;2022-08-25T02:21:00;100835;;;20.62;71.82
57250;BME280;43102;52.014;-0.680;2022-08-25T02:22:00;100835;;;20.62;71.82
57250;BME280;43102;52.014;-0.680;2022-08-25T02:23:00;100835;;;20.62;71.82
57250;BME280;43102;52.014;-0.680;2022-08-25T02:24:00;100835;;;20.62;71.82
57250;BME280;43102;52.014;-0.680;2022-08-25T02:25:00;100835;;;20.62;71.82
57250;BME280;43102;52.014;-0.680;2022-08-25T02:26:00;100842;;;20.60;71.89
57250;BME280;43102;52.014;-0.680;2022-08-25T02:27:00;100842;;;20.60;71.89
57250;BME280;43102;52.014;-0.680;2022-08-25T02:28:00;100842;;;20.60;71.89
57250;BME280;43102;52.014;-0.680;2022-08-25T02:29:00;100842;;;20.60;71.89
57250;BME280;43102;52.014;-0.680;2022-08-25T02:30:00;100842;;;20.60;71.89
57250;BME280;43102;52.014;-0.680;2022-08-25T02:31:00;100839;;;20.57;72.06
57250;BME280;43102;52.014;-0.680;2022-08-25T02:32:00;100839;;;20.57;72.06
57250;BME280;43102;52.014;-0.680;2022-08-25T02:33:00;100839;;;20.57;72.06
57250;BME280;43102;52.014;-0.680;2022-08-25T02:34:00;100839;;;20.57;72.06
57250;BME280;43102;52.014;-0.680;2022-08-25T02:35:00;100839;;;20.57;72.06
57250;BME280;43102;52.014;-0.680;2022-08-25T02:36:00;100837;;;20.47;72.72
57250;BME280;43102;52.014;-0.680;2022-08-25T02:37:00;100837;;;20.47;72.72
57250;BME280;43102;52.014;-0.680;2022-08-25T02:38:00;100837;;;20.47;72.72
57250;BME280;43102;52.014;-0.680;2022-08-25T02:39:00;100837;;;20.47;72.72
57250;BME280;43102;52.014;-0.680;2022-08-25T02:40:00;100837;;;20.47;72.72
57250;BME280;43102;52.014;-0.680;2022-08-25T02:41:00;100853;;;20.49;72.99
57250;BME280;43102;52.014;-0.680;2022-08-25T02:42:00;100853;;;20.49;72.99
57250;BME280;43102;52.014;-0.680;2022-08-25T02:43:00;100853;;;20.49;72.99
57250;BME280;43102;52.014;-0.680;2022-08-25T02:44:00;100853;;;20.49;72.99
57250;BME280;43102;52.014;-0.680;2022-08-25T02:45:00;100853;;;20.49;72.99
57250;BME280;43102;52.014;-0.680;2022-08-25T02:46:00;100845;;;20.54;72.69
57250;BME280;43102;52.014;-0.680;2022-08-25T02:47:00;100845;;;20.54;72.69
57250;BME280;43102;52.014;-0.680;2022-08-25T02:48:00;100845;;;20.54;72.69
57250;BME280;43102;52.014;-0.680;2022-08-25T02:49:00;100845;;;20.54;72.69
57250;BME280;43102;52.014;-0.680;2022-08-25T02:50:00;100845;;;20.54;72.69
57250;BME280;43102;52.014;-0.680;2022-08-25T02:51:00;100849;;;20.47;72.88
57250;BME280;43102;52.014;-0.680;2022-08-25T02:52:00;100849;;;20.47;72.88
57250;BME280;43102;52.014;-0.680;2022-08-25T02:53:00;100849;;;20.47;72.88
57250;BME280;43102;52.014;-0.680;2022-08-25T02:54:00;100849;;;20.47;72.88
57250;BME280;43102;52.014;-0.680;2022-08-25T02:55:01;100849;;;20.47;72.88
57250;BME280;43102;52.014;-0.680;2022-08-25T02:56:00;100850;;;20.45;73.14
57250;BME280;43102;52.014;-0.680;2022-08-25T02:57:00;100850;;;20.45;73.14
57250;BME280;43102;52.014;-0.680;2022-08-25T02:58:00;100850;;;20.45;73.14
57250;BME280;43102;52.014;-0.680;2022-08-25T02:59:00;100850;;;20.45;73.14
57250;BME280;43102;52.014;-0.680;2022-08-25T03:00:00;100850;;;20.45;73.14
57250;BME280;43102;52.014;-0.680;2022-08-25T03:01:00;100852;;;20.42;72.99
57250;BME280;43102;52.014;-0.680;2022-08-25T03:02:00;100852;;;20.42;72.99
57250;BME280;43102;52.014;-0.680;2022-08-25T03:03:00;100852;;;20.42;72.99
57250;BME280;43102;52.014;-0.680;2022-08-25T03:04:00;100852;;;20.42;72.99
57250;BME280;43102;52.014;-0.680;2022-08-25T03:05:00;100852;;;20.42;72.99
57250;BME280;43102;52.014;-0.680;2022-08-25T03:06:00;100843;;;20.40;73.11
57250;BME280;43102;52.014;-0.680;2022-08-25T03:07:00;100843;;;20.40;73.11
57250;BME280;43102;52.014;-0.680;2022-08-25T03:08:00;100843;;;20.40;73.11
57250;BME280;43102;52.014;-0.680;2022-08-25T03:09:00;100843;;;20.40;73.11
57250;BME280;43102;52.014;-0.680;2022-08-25T03:10:03;100843;;;20.40;73.11
57250;BME280;43102;52.014;-0.680;2022-08-25T03:11:00;100854;;;20.37;73.55
57250;BME280;43102;52.014;-0.680;2022-08-25T03:12:00;100854;;;20.37;73.55
57250;BME280;43102;52.014;-0.680;2022-08-25T03:13:00;100854;;;20.37;73.55
57250;BME280;43102;52.014;-0.680;2022-08-25T03:14:00;100854;;;20.37;73.55
57250;BME280;43102;52.014;-0.680;2022-08-25T03:15:00;100854;;;20.37;73.55
57250;BME280;43102;52.014;-0.680;2022-08-25T03:16:00;100842;;;20.37;73.44
57250;BME280;43102;52.014;-0.680;2022-08-25T03:17:00;100842;;;20.37;73.44
57250;BME280;43102;52.014;-0.680;2022-08-25T03:18:00;100842;;;20.37;73.44
57250;BME280;43102;52.014;-0.680;2022-08-25T03:19:00;100842;;;20.37;73.44
57250;BME280;43102;52.014;-0.680;2022-08-25T03:20:00;100842;;;20.37;73.44
57250;BME280;43102;52.014;-0.680;2022-08-25T03:21:00;100818;;;20.36;73.38
57250;BME280;43102;52.014;-0.680;2022-08-25T03:22:00;100818;;;20.36;73.38
57250;BME280;43102;52.014;-0.680;2022-08-25T03:23:01;100818;;;20.36;73.38
57250;BME280;43102;52.014;-0.680;2022-08-25T03:24:00;100818;;;20.36;73.38
57250;BME280;43102;52.014;-0.680;2022-08-25T03:25:00;100818;;;20.36;73.38
57250;BME280;43102;52.014;-0.680;2022-08-25T03:26:00;100828;;;20.30;73.57
57250;BME280;43102;52.014;-0.680;2022-08-25T03:27:00;100828;;;20.30;73.57
57250;BME280;43102;52.014;-0.680;2022-08-25T03:28:00;100828;;;20.30;73.57
57250;BME280;43102;52.014;-0.680;2022-08-25T03:29:00;100828;;;20.30;73.57
57250;BME280;43102;52.014;-0.680;2022-08-25T03:30:00;100828;;;20.30;73.57
57250;BME280;43102;52.014;-0.680;2022-08-25T03:31:00;100815;;;20.35;73.60
57250;BME280;43102;52.014;-0.680;2022-08-25T03:32:00;100815;;;20.35;73.60
57250;BME280;43102;52.014;-0.680;2022-08-25T03:33:00;100815;;;20.35;73.60
57250;BME280;43102;52.014;-0.680;2022-08-25T03:34:00;100815;;;20.35;73.60
57250;BME280;43102;52.014;-0.680;2022-08-25T03:35:00;100815;;;20.35;73.60
57250;BME280;43102;52.014;-0.680;2022-08-25T03:36:00;100817;;;20.34;73.77
57250;BME280;43102;52.014;-0.680;2022-08-25T03:37:00;100817;;;20.34;73.77
57250;BME280;43102;52.014;-0.680;2022-08-25T03:38:00;100817;;;20.34;73.77
57250;BME280;43102;52.014;-0.680;2022-08-25T03:39:00;100817;;;20.34;73.77
57250;BME280;43102;52.014;-0.680;2022-08-25T03:40:00;100817;;;20.34;73.77
57250;BME280;43102;52.014;-0.680;2022-08-25T03:41:00;100808;;;20.27;74.36
57250;BME280;43102;52.014;-0.680;2022-08-25T03:42:01;100808;;;20.27;74.36
57250;BME280;43102;52.014;-0.680;2022-08-25T03:43:00;100808;;;20.27;74.36
57250;BME280;43102;52.014;-0.680;2022-08-25T03:44:00;100808;;;20.27;74.36
57250;BME280;43102;52.014;-0.680;2022-08-25T03:45:03;100808;;;20.27;74.36
57250;BME280;43102;52.014;-0.680;2022-08-25T03:46:00;100802;;;20.26;74.20
57250;BME280;43102;52.014;-0.680;2022-08-25T03:47:00;100802;;;20.26;74.20
57250;BME280;43102;52.014;-0.680;2022-08-25T03:48:00;100802;;;20.26;74.20
57250;BME280;43102;52.014;-0.680;2022-08-25T03:49:00;100802;;;20.26;74.20
57250;BME280;43102;52.014;-0.680;2022-08-25T03:50:00;100802;;;20.26;74.20
57250;BME280;43102;52.014;-0.680;2022-08-25T03:51:00;100783;;;20.23;74.53
57250;BME280;43102;52.014;-0.680;2022-08-25T03:52:00;100783;;;20.23;74.53
57250;BME280;43102;52.014;-0.680;2022-08-25T03:53:00;100783;;;20.23;74.53
57250;BME280;43102;52.014;-0.680;2022-08-25T03:54:00;100783;;;20.23;74.53
57250;BME280;43102;52.014;-0.680;2022-08-25T03:55:00;100783;;;20.23;74.53
57250;BME280;43102;52.014;-0.680;2022-08-25T03:56:00;100773;;;20.11;75.28
57250;BME280;43102;52.014;-0.680;2022-08-25T03:57:00;100773;;;20.11;75.28
57250;BME280;43102;52.014;-0.680;2022-08-25T03:58:00;100773;;;20.11;75.28
57250;BME280;43102;52.014;-0.680;2022-08-25T03:59:00;100773;;;20.11;75.28
57250;BME280;43102;52.014;-0.680;2022-08-25T04:00:00;100773;;;20.11;75.28
57250;BME280;43102;52.014;-0.680;2022-08-25T04:01:00;100787;;;20.11;75.46
57250;BME280;43102;52.014;-0.680;2022-08-25T04:02:00;100787;;;20.11;75.46
57250;BME280;43102;52.014;-0.680;2022-08-25T04:03:00;100787;;;20.11;75.46
57250;BME280;43102;52.014;-0.680;2022-08-25T04:04:00;100787;;;20.11;75.46
57250;BME280;43102;52.014;-0.680;2022-08-25T04:05:00;100787;;;20.11;75.46
57250;BME280;43102;52.014;-0.680;2022-08-25T04:06:00;100768;;;20.15;75.42
57250;BME280;43102;52.014;-0.680;2022-08-25T04:07:00;100768;;;20.15;75.42
57250;BME280;43102;52.014;-0.680;2022-08-25T04:08:00;100768;;;20.15;75.42
57250;BME280;43102;52.014;-0.680;2022-08-25T04:09:00;100768;;;20.15;75.42
57250;BME280;43102;52.014;-0.680;2022-08-25T04:10:00;100768;;;20.15;75.42
57250;BME280;43102;52.014;-0.680;2022-08-25T04:11:08;100755;;;20.05;76.12
57250;BME280;43102;52.014;-0.680;2022-08-25T04:12:00;100755;;;20.05;76.12
57250;BME280;43102;52.014;-0.680;2022-08-25T04:13:00;100755;;;20.05;76.12
57250;BME280;43102;52.014;-0.680;2022-08-25T04:14:00;100755;;;20.05;76.12
57250;BME280;43102;52.014;-0.680;2022-08-25T04:15:00;100755;;;20.05;76.12
57250;BME280;43102;52.014;-0.680;2022-08-25T04:16:00;100746;;;20.03;76.29
57250;BME280;43102;52.014;-0.680;2022-08-25T04:17:00;100746;;;20.03;76.29
57250;BME280;43102;52.014;-0.680;2022-08-25T04:18:00;100746;;;20.03;76.29
57250;BME280;43102;52.014;-0.680;2022-08-25T04:19:01;100746;;;20.03;76.29
57250;BME280;43102;52.014;-0.680;2022-08-25T04:20:00;100746;;;20.03;76.29
57250;BME280;43102;52.014;-0.680;2022-08-25T04:21:00;100750;;;19.97;76.76
57250;BME280;43102;52.014;-0.680;2022-08-25T04:22:00;100750;;;19.97;76.76
57250;BME280;43102;52.014;-0.680;2022-08-25T04:23:00;100750;;;19.97;76.76
57250;BME280;43102;52.014;-0.680;2022-08-25T04:24:00;100750;;;19.97;76.76
57250;BME280;43102;52.014;-0.680;2022-08-25T04:25:00;100750;;;19.97;76.76
57250;BME280;43102;52.014;-0.680;2022-08-25T04:26:00;100768;;;19.96;77.03
57250;BME280;43102;52.014;-0.680;2022-08-25T04:27:00;100768;;;19.96;77.03
57250;BME280;43102;52.014;-0.680;2022-08-25T04:28:00;100768;;;19.96;77.03
57250;BME280;43102;52.014;-0.680;2022-08-25T04:29:00;100768;;;19.96;77.03
57250;BME280;43102;52.014;-0.680;2022-08-25T04:30:00;100768;;;19.96;77.03
57250;BME280;43102;52.014;-0.680;2022-08-25T04:31:00;100771;;;20.06;76.79
57250;BME280;43102;52.014;-0.680;2022-08-25T04:32:00;100771;;;20.06;76.79
57250;BME280;43102;52.014;-0.680;2022-08-25T04:33:00;100771;;;20.06;76.79
57250;BME280;43102;52.014;-0.680;2022-08-25T04:34:00;100771;;;20.06;76.79
57250;BME280;43102;52.014;-0.680;2022-08-25T04:35:00;100771;;;20.06;76.79
57250;BME280;43102;52.014;-0.680;2022-08-25T04:36:00;100790;;;20.06;76.97
57250;BME280;43102;52.014;-0.680;2022-08-25T04:37:00;100790;;;20.06;76.97
57250;BME280;43102;52.014;-0.680;2022-08-25T04:38:00;100790;;;20.06;76.97
57250;BME280;43102;52.014;-0.680;2022-08-25T04:39:00;100790;;;20.06;76.97
57250;BME280;43102;52.014;-0.680;2022-08-25T04:40:00;100790;;;20.06;76.97
57250;BME280;43102;52.014;-0.680;2022-08-25T04:41:03;100809;;;20.11;77.45
57250;BME280;43102;52.014;-0.680;2022-08-25T04:42:00;100809;;;20.11;77.45
57250;BME280;43102;52.014;-0.680;2022-08-25T04:43:00;100809;;;20.11;77.45
57250;BME280;43102;52.014;-0.680;2022-08-25T04:44:00;100809;;;20.11;77.45
57250;BME280;43102;52.014;-0.680;2022-08-25T04:45:00;100809;;;20.11;77.45
57250;BME280;43102;52.014;-0.680;2022-08-25T04:46:04;100814;;;20.16;77.20
57250;BME280;43102;52.014;-0.680;2022-08-25T04:47:00;100814;;;20.16;77.20
57250;BME280;43102;52.014;-0.680;2022-08-25T04:48:00;100814;;;20.16;77.20
57250;BME280;43102;52.014;-0.680;2022-08-25T04:49:00;100814;;;20.16;77.20
57250;BME280;43102;52.014;-0.680;2022-08-25T04:50:00;100814;;;20.16;77.20
57250;BME280;43102;52.014;-0.680;2022-08-25T04:51:03;100813;;;20.11;77.47
57250;BME280;43102;52.014;-0.680;2022-08-25T04:52:00;100813;;;20.11;77.47
57250;BME280;43102;52.014;-0.680;2022-08-25T04:53:00;100813;;;20.11;77.47
57250;BME280;43102;52.014;-0.680;2022-08-25T04:54:00;100813;;;20.11;77.47
57250;BME280;43102;52.014;-0.680;2022-08-25T04:55:00;100813;;;20.11;77.47
57250;BME280;43102;52.014;-0.680;2022-08-25T04:56:00;100825;;;20.04;77.92
57250;BME280;43102;52.014;-0.680;2022-08-25T04:57:00;100825;;;20.04;77.92
57250;BME280;43102;52.014;-0.680;2022-08-25T04:58:00;100825;;;20.04;77.92
57250;BME280;43102;52.014;-0.680;2022-08-25T04:59:02;100825;;;20.04;77.92
57250;BME280;43102;52.014;-0.680;2022-08-25T05:00:00;100825;;;20.04;77.92
57250;BME280;43102;52.014;-0.680;2022-08-25T05:01:00;100819;;;20.02;78.16
57250;BME280;43102;52.014;-0.680;2022-08-25T05:02:00;100819;;;20.02;78.16
57250;BME280;43102;52.014;-0.680;2022-08-25T05:03:00;100819;;;20.02;78.16
57250;BME280;43102;52.014;-0.680;2022-08-25T05:04:00;100819;;;20.02;78.16
57250;BME280;43102;52.014;-0.680;2022-08-25T05:05:00;100819;;;20.02;78.16
57250;BME280;43102;52.014;-0.680;2022-08-25T05:06:00;100826;;;19.93;78.68
57250;BME280;43102;52.014;-0.680;2022-08-25T05:07:00;100826;;;19.93;78.68
57250;BME280;43102;52.014;-0.680;2022-08-25T05:08:00;100826;;;19.93;78.68
57250;BME280;43102;52.014;-0.680;2022-08-25T05:09:01;100826;;;19.93;78.68
57250;BME280;43102;52.014;-0.680;2022-08-25T05:10:00;100826;;;19.93;78.68
57250;BME280;43102;52.014;-0.680;2022-08-25T05:11:07;100817;;;19.92;79.23
57250;BME280;43102;52.014;-0.680;2022-08-25T05:12:00;100817;;;19.92;79.23
57250;BME280;43102;52.014;-0.680;2022-08-25T05:13:00;100817;;;19.92;79.23
57250;BME280;43102;52.014;-0.680;2022-08-25T05:14:00;100817;;;19.92;79.23
57250;BME280;43102;52.014;-0.680;2022-08-25T05:15:00;100817;;;19.92;79.23
57250;BME280;43102;52.014;-0.680;2022-08-25T05:16:00;100800;;;19.91;79.50
57250;BME280;43102;52.014;-0.680;2022-08-25T05:17:00;100800;;;19.91;79.50
57250;BME280;43102;52.014;-0.680;2022-08-25T05:18:00;100800;;;19.91;79.50
57250;BME280;43102;52.014;-0.680;2022-08-25T05:19:00;100800;;;19.91;79.50
57250;BME280;43102;52.014;-0.680;2022-08-25T05:20:00;100800;;;19.91;79.50
57250;BME280;43102;52.014;-0.680;2022-08-25T05:21:00;100803;;;19.77;80.07
57250;BME280;43102;52.014;-0.680;2022-08-25T05:22:00;100803;;;19.77;80.07
57250;BME280;43102;52.014;-0.680;2022-08-25T05:23:00;100803;;;19.77;80.07
57250;BME280;43102;52.014;-0.680;2022-08-25T05:24:00;100803;;;19.77;80.07